createdAt,value
2024-02-27T00:00:34.526Z,0.63
2024-02-27T00:03:01.270Z,0.70
2024-02-27T00:05:28.162Z,0.80
2024-02-27T00:07:55.019Z,1.00
2024-02-27T00:10:21.738Z,1.53
2024-02-27T00:15:25.518Z,0.70
2024-02-27T00:17:52.329Z,0.77
2024-02-27T00:20:19.112Z,0.83
2024-02-27T00:22:45.814Z,3.60
2024-02-27T00:25:12.628Z,0.80
2024-02-27T00:27:39.351Z,0.80
2024-02-27T00:30:06.888Z,0.90
2024-02-27T00:32:33.593Z,0.90
2024-02-27T00:35:00.385Z,0.73
2024-02-27T00:37:27.392Z,0.83
2024-02-27T00:39:54.656Z,0.97
2024-02-27T00:44:58.699Z,1.73
2024-02-27T00:49:56.699Z,0.97
2024-02-27T00:52:23.490Z,1.10
2024-02-27T00:54:50.134Z,1.30
2024-02-27T00:57:17.070Z,1.30
2024-02-27T00:59:44.102Z,1.40
2024-02-27T01:02:10.812Z,1.20
2024-02-27T01:04:37.529Z,1.77
2024-02-27T01:07:04.449Z,1.23
2024-02-27T01:09:34.977Z,1.00
2024-02-27T01:14:38.726Z,1.57
2024-02-27T01:17:05.472Z,1.67
2024-02-27T01:22:03.933Z,1.10
2024-02-27T01:24:30.779Z,1.10
2024-02-27T01:26:57.527Z,1.20
2024-02-27T01:29:24.804Z,1.40
2024-02-27T01:31:51.484Z,1.10
2024-02-27T01:34:18.258Z,3.13
2024-02-27T01:36:45.800Z,1.40
2024-02-27T01:39:12.897Z,1.50
2024-02-27T01:41:41.084Z,2.40
2024-02-27T01:44:08.970Z,2.33
2024-02-27T01:46:35.773Z,1.50
2024-02-27T01:49:03.963Z,1.70
2024-02-27T01:51:31.754Z,1.50
2024-02-27T01:54:00.387Z,1.97
2024-02-27T01:56:27.191Z,1.90
2024-02-27T01:58:54.909Z,2.30
2024-02-27T02:01:22.954Z,1.97
2024-02-27T02:03:52.721Z,2.13
2024-02-27T02:06:21.288Z,2.00
2024-02-27T02:08:48.400Z,2.40
2024-02-27T02:11:15.610Z,3.67
2024-02-27T02:13:45.554Z,2.63
2024-02-27T02:16:12.257Z,4.63
2024-02-27T02:18:39.034Z,3.40
2024-02-27T02:21:05.969Z,4.50
2024-02-27T02:23:32.873Z,4.23
2024-02-27T02:26:01.156Z,4.30
2024-02-27T02:28:28.195Z,3.97
2024-02-27T02:30:55.351Z,3.90
2024-02-27T02:36:00.888Z,4.80
2024-02-27T02:38:27.563Z,4.43
2024-02-27T02:40:54.227Z,4.40
2024-02-27T02:45:58.594Z,4.53
2024-02-27T02:48:25.382Z,4.90
2024-02-27T02:50:52.120Z,5.47
2024-02-27T02:53:18.784Z,5.60
2024-02-27T02:58:19.524Z,5.37
2024-02-27T03:00:46.304Z,5.33
2024-02-27T03:03:13.565Z,4.70
2024-02-27T03:05:40.293Z,4.50
2024-02-27T03:08:07.324Z,4.97
2024-02-27T03:10:34.014Z,4.63
2024-02-27T03:13:00.818Z,5.73
2024-02-27T03:15:27.508Z,4.37
2024-02-27T03:20:26.140Z,5.20
2024-02-27T03:22:52.794Z,4.80
2024-02-27T03:27:51.802Z,5.97
2024-02-27T03:30:20.492Z,5.17
2024-02-27T03:32:47.481Z,6.63
2024-02-27T03:35:14.239Z,5.07
2024-02-27T03:37:41.028Z,5.50
2024-02-27T03:42:48.469Z,6.87
2024-02-27T03:45:15.268Z,7.97
2024-02-27T03:47:42.052Z,9.33
2024-02-27T03:50:09.431Z,6.20
2024-02-27T03:52:36.182Z,5.70
2024-02-27T04:00:14.911Z,5.50
2024-02-27T04:02:44.381Z,5.53
2024-02-27T04:05:11.415Z,9.80
2024-02-27T04:07:38.212Z,6.93
2024-02-27T04:10:05.821Z,7.30
2024-02-27T04:12:32.591Z,6.63
2024-02-27T04:14:59.362Z,7.67
2024-02-27T04:17:26.123Z,6.33
2024-02-27T04:19:52.947Z,11.47
2024-02-27T04:22:19.620Z,7.63
2024-02-27T04:24:46.258Z,8.13
2024-02-27T04:27:12.961Z,8.63
2024-02-27T04:29:42.963Z,9.23
2024-02-27T04:32:09.852Z,9.90
2024-02-27T04:34:36.716Z,8.90
2024-02-27T04:37:03.455Z,9.00
2024-02-27T04:39:30.366Z,11.07
2024-02-27T04:41:57.229Z,9.37
2024-02-27T04:44:23.978Z,9.17
2024-02-27T04:46:50.714Z,10.20
2024-02-27T04:49:17.664Z,9.03
2024-02-27T04:51:44.586Z,7.67
2024-02-27T04:54:11.787Z,10.97
2024-02-27T04:56:42.907Z,10.53
2024-02-27T04:59:09.759Z,10.00
2024-02-27T05:01:36.469Z,9.33
2024-02-27T05:04:03.393Z,9.90
2024-02-27T05:06:30.182Z,10.00
2024-02-27T05:08:56.919Z,9.13
2024-02-27T05:11:23.760Z,8.17
2024-02-27T05:16:21.953Z,7.97
2024-02-27T05:18:48.922Z,9.20
2024-02-27T05:21:15.640Z,13.53
2024-02-27T05:23:42.313Z,8.30
2024-02-27T05:26:08.955Z,11.43
2024-02-27T05:28:37.688Z,8.70
2024-02-27T05:31:25.032Z,10.53
2024-02-27T05:33:53.140Z,8.07
2024-02-27T05:36:20.613Z,9.30
2024-02-27T05:43:50.787Z,10.20
2024-02-27T05:46:17.585Z,10.67
2024-02-27T05:48:44.644Z,11.97
2024-02-27T05:51:11.715Z,9.10
2024-02-27T05:53:38.600Z,11.83
2024-02-27T05:56:05.864Z,9.53
2024-02-27T05:58:32.588Z,12.27
2024-02-27T06:00:59.448Z,10.77
2024-02-27T06:06:01.646Z,11.20
2024-02-27T06:08:28.621Z,16.10
2024-02-27T06:10:55.681Z,14.23
2024-02-27T06:13:22.433Z,12.30
2024-02-27T06:15:49.733Z,11.53
2024-02-27T06:18:16.785Z,17.13
2024-02-27T06:21:02.653Z,14.17
2024-02-27T06:23:30.150Z,13.80
2024-02-27T06:25:56.904Z,12.20
2024-02-27T06:28:24.335Z,11.47
2024-02-27T06:30:51.199Z,13.73
2024-02-27T06:33:18.047Z,12.20
2024-02-27T06:35:44.922Z,11.70
2024-02-27T06:38:11.621Z,10.53
2024-02-27T06:40:38.372Z,13.30
2024-02-27T06:43:05.193Z,15.70
2024-02-27T06:45:33.772Z,10.50
2024-02-27T06:48:01.017Z,13.00
2024-02-27T06:50:27.774Z,11.70
2024-02-27T06:52:56.019Z,13.47
2024-02-27T06:55:22.981Z,12.47
2024-02-27T06:57:51.361Z,12.23
2024-02-27T07:00:18.371Z,13.17
2024-02-27T07:02:47.717Z,14.23
2024-02-27T07:05:16.167Z,13.27
2024-02-27T07:07:42.932Z,19.27
2024-02-27T07:10:10.427Z,11.93
2024-02-27T07:12:37.386Z,12.77
2024-02-27T07:15:04.745Z,11.93
2024-02-27T07:17:31.714Z,10.27
2024-02-27T07:20:00.163Z,14.63
2024-02-27T07:22:26.915Z,12.60
2024-02-27T07:24:54.488Z,14.77
2024-02-27T07:27:21.227Z,11.43
2024-02-27T07:29:47.930Z,13.90
2024-02-27T07:34:48.191Z,13.10
2024-02-27T07:37:17.668Z,14.70
2024-02-27T07:39:46.646Z,12.83
2024-02-27T07:42:13.440Z,14.57
2024-02-27T07:47:11.401Z,11.40
2024-02-27T07:49:38.052Z,11.53
2024-02-27T07:52:05.074Z,11.03
2024-02-27T07:54:31.812Z,12.37
2024-02-27T07:56:58.533Z,11.43
2024-02-27T07:59:25.575Z,12.90
2024-02-27T08:01:52.282Z,13.70
2024-02-27T08:04:19.167Z,11.10
2024-02-27T08:06:46.314Z,13.77
2024-02-27T08:09:13.142Z,13.93
2024-02-27T08:11:40.345Z,16.60
2024-02-27T08:14:07.049Z,11.97
2024-02-27T08:16:33.750Z,12.23
2024-02-27T08:19:05.527Z,13.67
2024-02-27T08:21:33.522Z,13.90
2024-02-27T08:24:01.844Z,11.87
2024-02-27T08:26:28.556Z,13.80
2024-02-27T08:28:55.743Z,12.77
2024-02-27T08:31:24.373Z,11.77
2024-02-27T08:33:51.152Z,13.03
2024-02-27T08:36:17.930Z,12.77
2024-02-27T08:38:45.573Z,13.10
2024-02-27T08:41:12.323Z,13.13
2024-02-27T08:43:41.371Z,13.73
2024-02-27T08:46:08.132Z,17.30
2024-02-27T08:48:35.021Z,12.87
2024-02-27T08:51:01.764Z,13.67
2024-02-27T08:53:28.471Z,12.43
2024-02-27T08:55:55.123Z,14.63
2024-02-27T08:58:21.792Z,15.00
2024-02-27T09:00:48.815Z,12.90
2024-02-27T09:03:15.761Z,13.07
2024-02-27T09:05:44.751Z,14.63
2024-02-27T09:08:14.991Z,14.13
2024-02-27T09:10:44.308Z,13.37
2024-02-27T09:13:11.095Z,11.63
2024-02-27T09:15:38.045Z,13.60
2024-02-27T09:18:05.337Z,14.20
2024-02-27T09:20:35.730Z,12.53
2024-02-27T09:23:02.738Z,14.53
2024-02-27T09:25:29.395Z,13.57
2024-02-27T09:30:27.317Z,13.87
2024-02-27T09:32:54.704Z,13.57
2024-02-27T09:35:21.393Z,13.97
2024-02-27T09:37:48.356Z,15.30
2024-02-27T09:40:15.201Z,15.70
2024-02-27T09:45:21.063Z,13.43
2024-02-27T09:47:49.782Z,15.40
2024-02-27T09:50:21.187Z,12.63
2024-02-27T09:52:52.467Z,13.57
2024-02-27T09:55:23.159Z,15.47
2024-02-27T09:57:50.959Z,13.40
2024-02-27T10:00:18.722Z,14.63
2024-02-27T10:02:51.119Z,16.40
2024-02-27T10:05:20.105Z,12.73
2024-02-27T10:07:49.613Z,15.03
2024-02-27T10:10:17.680Z,17.27
2024-02-27T10:12:45.083Z,16.00
2024-02-27T10:15:12.041Z,19.77
2024-02-27T10:17:39.880Z,15.00
2024-02-27T10:20:12.339Z,14.40
2024-02-27T10:22:43.168Z,15.73
2024-02-27T10:25:12.673Z,16.57
2024-02-27T10:27:43.106Z,16.03
2024-02-27T10:30:10.832Z,15.23
2024-02-27T10:32:38.032Z,17.03
2024-02-27T10:35:05.694Z,14.70
2024-02-27T10:37:37.455Z,15.73
2024-02-27T10:40:09.125Z,17.80
2024-02-27T10:45:11.041Z,18.70
2024-02-27T10:47:37.991Z,18.00
2024-02-27T10:50:08.290Z,16.77
2024-02-27T10:52:36.585Z,14.33
2024-02-27T10:55:04.509Z,15.20
2024-02-27T10:57:34.424Z,14.30
2024-02-27T11:00:01.440Z,13.27
2024-02-27T11:02:30.104Z,14.77
2024-02-27T11:05:01.023Z,13.90
2024-02-27T11:07:29.490Z,14.60
2024-02-27T11:09:59.569Z,15.87
2024-02-27T11:12:27.506Z,15.60
2024-02-27T11:15:02.834Z,19.30
2024-02-27T11:17:34.541Z,15.47
2024-02-27T11:20:02.554Z,16.53
2024-02-27T11:22:31.007Z,16.20
2024-02-27T11:24:57.941Z,15.23
2024-02-27T11:27:26.976Z,18.60
2024-02-27T11:29:55.465Z,15.37
2024-02-27T11:32:23.122Z,14.87
2024-02-27T11:37:22.353Z,16.03
2024-02-27T11:39:50.541Z,14.30
2024-02-27T11:42:38.186Z,15.13
2024-02-27T11:45:06.319Z,15.47
2024-02-27T11:47:48.257Z,18.83
2024-02-27T11:50:41.304Z,16.70
2024-02-27T11:53:16.920Z,14.80
2024-02-27T11:55:44.561Z,13.77
2024-02-27T11:58:12.198Z,14.13
2024-02-27T12:00:39.459Z,15.07
2024-02-27T12:03:09.860Z,18.23
2024-02-27T12:05:37.705Z,14.87
2024-02-27T12:08:05.954Z,14.43
2024-02-27T12:10:33.642Z,15.77
2024-02-27T12:15:32.675Z,15.90
2024-02-27T12:17:59.594Z,17.23
2024-02-27T12:20:26.441Z,14.73
2024-02-27T12:22:54.943Z,16.17
2024-02-27T12:25:21.747Z,14.87
2024-02-27T12:27:55.196Z,15.67
2024-02-27T12:30:24.652Z,16.17
2024-02-27T12:32:53.137Z,14.03
2024-02-27T12:35:20.248Z,12.60
2024-02-27T12:37:49.031Z,14.93
2024-02-27T12:40:18.306Z,16.63
2024-02-27T12:42:47.794Z,15.80
2024-02-27T12:45:17.137Z,14.63
2024-02-27T12:47:46.952Z,14.77
2024-02-27T12:50:14.400Z,24.07
2024-02-27T12:52:42.014Z,15.90
2024-02-27T12:55:10.997Z,18.17
2024-02-27T12:57:38.111Z,67.53
2024-02-27T13:00:05.749Z,18.67
2024-02-27T13:02:32.499Z,15.57
2024-02-27T13:04:59.467Z,16.90
2024-02-27T13:07:29.911Z,17.57
2024-02-27T13:09:57.745Z,16.20
2024-02-27T13:12:26.100Z,15.03
2024-02-27T13:14:52.777Z,17.77
2024-02-27T13:17:19.588Z,17.87
2024-02-27T13:19:46.414Z,16.57
2024-02-27T13:22:13.174Z,15.43
2024-02-27T13:24:39.998Z,15.23
2024-02-27T13:27:06.749Z,16.27
2024-02-27T13:29:33.437Z,16.33
2024-02-27T13:32:00.353Z,19.57
2024-02-27T13:34:27.362Z,16.57
2024-02-27T13:36:54.150Z,17.30
2024-02-27T13:39:21.626Z,17.57
2024-02-27T13:41:48.502Z,16.70
2024-02-27T13:44:17.839Z,17.90
2024-02-27T13:49:24.089Z,18.10
2024-02-27T13:51:51.081Z,16.07
2024-02-27T13:54:17.986Z,16.87
2024-02-27T13:56:44.661Z,17.47
2024-02-27T14:01:42.823Z,16.43
2024-02-27T14:04:10.292Z,17.83
2024-02-27T14:06:37.109Z,16.67
2024-02-27T14:09:04.173Z,19.23
2024-02-27T14:11:31.733Z,16.67
2024-02-27T14:14:06.803Z,16.43
2024-02-27T14:16:39.913Z,15.83
2024-02-27T14:19:08.689Z,16.30
2024-02-27T14:21:35.606Z,16.83
2024-02-27T14:24:02.773Z,17.00
2024-02-27T14:29:01.714Z,14.80
2024-02-27T14:31:29.679Z,16.40
2024-02-27T14:33:56.609Z,16.73
2024-02-27T14:36:23.829Z,18.43
2024-02-27T14:38:50.616Z,16.43
2024-02-27T14:41:17.254Z,15.30
2024-02-27T14:43:43.924Z,16.17
2024-02-27T14:46:12.190Z,18.97
2024-02-27T14:48:38.975Z,14.50
2024-02-27T14:51:05.998Z,16.07
2024-02-27T14:56:06.148Z,15.73
2024-02-27T14:58:32.846Z,15.00
2024-02-27T15:00:59.734Z,14.73
2024-02-27T15:03:26.621Z,13.87
2024-02-27T15:05:53.555Z,16.50
2024-02-27T15:08:20.219Z,17.27
2024-02-27T15:10:46.980Z,14.93
2024-02-27T15:13:13.769Z,14.70
2024-02-27T15:15:40.601Z,15.30
2024-02-27T15:20:40.389Z,15.43
2024-02-27T15:23:07.659Z,16.37
2024-02-27T15:25:34.384Z,18.50
2024-02-27T15:28:01.615Z,18.40
2024-02-27T15:30:28.369Z,17.30
2024-02-27T15:32:55.116Z,17.20
2024-02-27T15:35:21.871Z,14.70
2024-02-27T15:37:49.002Z,19.67
2024-02-27T15:40:15.699Z,15.53
2024-02-27T15:42:42.429Z,14.00
2024-02-27T15:45:09.403Z,15.63
2024-02-27T15:47:36.196Z,16.07
2024-02-27T15:52:41.913Z,14.50
2024-02-27T15:55:08.774Z,14.13
2024-02-27T15:57:35.496Z,14.13
2024-02-27T16:00:08.854Z,14.33
2024-02-27T16:02:36.705Z,14.57
2024-02-27T16:05:05.190Z,16.80
2024-02-27T16:07:38.477Z,14.17
2024-02-27T16:10:08.250Z,14.80
2024-02-27T16:12:37.034Z,38.53
2024-02-27T16:15:06.425Z,16.20
2024-02-27T16:17:33.812Z,13.63
2024-02-27T16:20:00.622Z,12.03
2024-02-27T16:22:27.452Z,13.47
2024-02-27T16:24:54.250Z,13.40
2024-02-27T16:27:21.063Z,12.47
2024-02-27T16:29:47.877Z,12.43
2024-02-27T16:32:14.671Z,13.33
2024-02-27T16:34:41.624Z,12.67
2024-02-27T16:37:08.708Z,13.57
2024-02-27T16:39:35.613Z,13.60
2024-02-27T16:42:02.322Z,15.73
2024-02-27T16:44:29.105Z,13.13
2024-02-27T16:46:55.827Z,13.23
2024-02-27T16:49:22.807Z,13.33
2024-02-27T16:51:49.787Z,13.80
2024-02-27T16:54:16.634Z,16.77
2024-02-27T16:56:43.310Z,16.57
2024-02-27T16:59:09.933Z,13.37
2024-02-27T17:01:36.675Z,13.13
2024-02-27T17:04:03.616Z,15.93
2024-02-27T17:06:31.266Z,12.10
2024-02-27T17:08:57.963Z,12.97
2024-02-27T17:11:24.763Z,12.30
2024-02-27T17:13:52.075Z,12.17
2024-02-27T17:16:18.763Z,12.97
2024-02-27T17:18:45.620Z,11.70
2024-02-27T17:21:12.399Z,11.83
2024-02-27T17:23:39.059Z,11.07
2024-02-27T17:26:06.274Z,13.50
2024-02-27T17:28:33.002Z,12.40
2024-02-27T17:30:59.714Z,10.40
2024-02-27T17:33:27.894Z,10.10
2024-02-27T17:35:54.684Z,11.23
2024-02-27T17:40:59.721Z,13.23
2024-02-27T17:43:26.737Z,13.07
2024-02-27T17:45:53.662Z,12.37
2024-02-27T17:53:26.129Z,11.83
2024-02-27T17:55:52.874Z,12.43
2024-02-27T17:58:19.568Z,12.83
2024-02-27T18:00:46.788Z,13.00
2024-02-27T18:03:13.719Z,15.07
2024-02-27T18:05:40.701Z,15.63
2024-02-27T18:10:39.788Z,13.67
2024-02-27T18:13:06.448Z,13.83
2024-02-27T18:18:05.019Z,14.83
2024-02-27T18:20:32.683Z,14.80
2024-02-27T18:23:02.493Z,12.00
2024-02-27T18:25:33.236Z,14.33
2024-02-27T18:27:59.976Z,13.57
2024-02-27T18:32:58.496Z,14.43
2024-02-27T18:37:57.175Z,13.93
2024-02-27T18:40:24.286Z,17.67
2024-02-27T18:42:51.499Z,17.60
2024-02-27T18:45:18.316Z,16.10
2024-02-27T18:47:44.993Z,18.03
2024-02-27T18:50:11.850Z,15.13
2024-02-27T18:52:38.510Z,18.17
2024-02-27T18:55:05.667Z,15.10
2024-02-27T18:57:32.385Z,17.87
2024-02-27T19:00:00.146Z,18.80
2024-02-27T19:02:27.053Z,19.67
2024-02-27T19:04:53.736Z,17.77
2024-02-27T19:07:20.596Z,17.10
2024-02-27T19:09:47.690Z,17.90
2024-02-27T19:12:14.976Z,18.80
2024-02-27T19:14:41.896Z,16.40
2024-02-27T19:17:08.823Z,15.90
2024-02-27T19:19:35.850Z,19.57
2024-02-27T19:22:02.525Z,14.60
2024-02-27T19:24:30.198Z,15.03
2024-02-27T19:26:57.023Z,17.77
2024-02-27T19:29:23.698Z,17.87
2024-02-27T19:31:50.416Z,17.50
2024-02-27T19:34:17.167Z,17.57
2024-02-27T19:36:45.677Z,23.17
2024-02-27T19:39:13.334Z,17.27
2024-02-27T19:41:40.301Z,16.40
2024-02-27T19:44:08.321Z,16.17
2024-02-27T19:46:35.262Z,16.17
2024-02-27T19:49:02.047Z,17.60
2024-02-27T19:51:28.842Z,16.63
2024-02-27T19:53:55.652Z,16.80
2024-02-27T19:56:22.427Z,16.10
2024-02-27T19:58:49.135Z,14.70
2024-02-27T20:01:16.088Z,18.47
2024-02-27T20:03:43.114Z,14.53
2024-02-27T20:06:10.019Z,15.90
2024-02-27T20:08:36.855Z,15.50
2024-02-27T20:11:04.012Z,13.50
2024-02-27T20:13:30.721Z,17.03
2024-02-27T20:15:58.659Z,25.30
2024-02-27T20:18:25.550Z,16.10
2024-02-27T20:20:52.220Z,16.00
2024-02-27T20:25:54.502Z,17.97
2024-02-27T20:28:21.189Z,18.80
2024-02-27T20:33:21.455Z,16.67
2024-02-27T20:35:49.037Z,18.93
2024-02-27T20:40:56.149Z,20.17
2024-02-27T20:43:23.700Z,17.00
2024-02-27T20:45:50.482Z,17.47
2024-02-27T20:53:27.769Z,18.90
2024-02-27T20:55:55.566Z,19.17
2024-02-27T21:00:53.510Z,17.27
2024-02-27T21:03:20.293Z,22.17
2024-02-27T21:05:46.943Z,16.50
2024-02-27T21:08:13.600Z,17.63
2024-02-27T21:10:40.360Z,16.13
2024-02-27T21:13:07.080Z,14.83
2024-02-27T21:15:34.524Z,16.87
2024-02-27T21:18:01.304Z,14.40
2024-02-27T21:20:28.072Z,15.70
2024-02-27T21:22:54.778Z,16.50
2024-02-27T21:25:21.478Z,17.13
2024-02-27T21:27:53.866Z,16.33
2024-02-27T21:30:20.927Z,16.53
2024-02-27T21:35:18.905Z,18.17
2024-02-27T21:37:45.667Z,17.57
2024-02-27T21:40:13.216Z,16.13
2024-02-27T21:42:40.497Z,15.30
2024-02-27T21:45:11.262Z,15.50
2024-02-27T21:47:40.726Z,16.87
2024-02-27T21:50:08.116Z,15.13
2024-02-27T21:52:34.781Z,17.37
2024-02-27T21:55:01.637Z,17.70
2024-02-27T21:57:28.382Z,14.73
2024-02-27T21:59:55.050Z,14.80
2024-02-27T22:02:21.773Z,15.87
2024-02-27T22:04:48.535Z,15.03
2024-02-27T22:07:15.844Z,16.80
2024-02-27T22:09:42.626Z,17.17
2024-02-27T22:12:09.694Z,16.03
2024-02-27T22:14:36.521Z,16.83
2024-02-27T22:17:03.224Z,17.93
2024-02-27T22:19:30.061Z,16.23
2024-02-27T22:24:28.295Z,17.63
2024-02-27T22:26:55.014Z,15.60
2024-02-27T22:29:21.767Z,17.43
2024-02-27T22:31:49.167Z,18.27
2024-02-27T22:34:15.914Z,16.17
2024-02-27T22:41:45.719Z,18.37
2024-02-27T22:44:12.387Z,16.03
2024-02-27T22:46:39.081Z,15.93
2024-02-27T22:49:05.739Z,19.90
2024-02-27T22:51:32.493Z,15.33
2024-02-27T22:53:59.168Z,15.93
2024-02-27T22:56:25.856Z,17.43
2024-02-27T22:58:52.647Z,14.97
2024-02-27T23:03:57.476Z,17.93
2024-02-27T23:06:24.210Z,19.60
2024-02-27T23:08:50.903Z,16.00
2024-02-27T23:11:17.697Z,16.93
2024-02-27T23:13:44.505Z,19.00
2024-02-27T23:16:13.139Z,18.27
2024-02-27T23:18:40.252Z,16.40
2024-02-27T23:21:06.942Z,16.93
2024-02-27T23:23:33.664Z,17.63
2024-02-27T23:26:00.398Z,19.00
2024-02-27T23:31:06.238Z,15.87
2024-02-27T23:33:32.916Z,18.33
2024-02-27T23:35:59.599Z,16.13
2024-02-27T23:38:26.255Z,15.27
2024-02-27T23:43:32.238Z,17.53
2024-02-27T23:45:58.993Z,16.80
2024-02-27T23:48:25.714Z,16.73
2024-02-27T23:50:52.428Z,15.40
2024-02-27T23:53:21.830Z,17.60
2024-02-27T23:55:48.739Z,17.27
2024-02-27T23:58:15.565Z,16.37
